sensor_id;sensor_type;location;lat;lon;timestamp;temperature;humidity
12682;DHT22;6405;59.208;18.216;2023-02-27T00:02:22;-6.70;99.90
12682;DHT22;6405;59.208;18.216;2023-02-27T00:04:48;-6.70;99.90
12682;DHT22;6405;59.208;18.216;2023-02-27T00:07:14;-6.70;99.90
12682;DHT22;6405;59.208;18.216;2023-02-27T00:09:40;-6.70;99.90
12682;DHT22;6405;59.208;18.216;2023-02-27T00:12:07;-6.70;99.90
12682;DHT22;6405;59.208;18.216;2023-02-27T00:14:33;-6.70;99.90
12682;DHT22;6405;59.208;18.216;2023-02-27T00:16:59;-6.70;99.90
12682;DHT22;6405;59.208;18.216;2023-02-27T00:19:25;-6.70;99.90
12682;DHT22;6405;59.208;18.216;2023-02-27T00:21:51;-6.80;99.90
12682;DHT22;6405;59.208;18.216;2023-02-27T00:24:17;-6.80;99.90
12682;DHT22;6405;59.208;18.216;2023-02-27T00:26:42;-6.80;99.90
12682;DHT22;6405;59.208;18.216;2023-02-27T00:29:08;-6.80;99.90
12682;DHT22;6405;59.208;18.216;2023-02-27T00:31:35;-6.80;99.90
12682;DHT22;6405;59.208;18.216;2023-02-27T00:34:01;-6.80;99.90
12682;DHT22;6405;59.208;18.216;2023-02-27T00:36:26;-6.80;99.90
12682;DHT22;6405;59.208;18.216;2023-02-27T00:38:52;-6.80;99.90
12682;DHT22;6405;59.208;18.216;2023-02-27T00:41:18;-6.80;99.90
12682;DHT22;6405;59.208;18.216;2023-02-27T00:43:43;-6.90;99.90
12682;DHT22;6405;59.208;18.216;2023-02-27T00:46:09;-6.90;99.90
12682;DHT22;6405;59.208;18.216;2023-02-27T00:48:35;-6.80;99.90
12682;DHT22;6405;59.208;18.216;2023-02-27T00:51:01;-6.80;99.90
12682;DHT22;6405;59.208;18.216;2023-02-27T00:53:26;-6.80;99.90
12682;DHT22;6405;59.208;18.216;2023-02-27T00:55:52;-6.90;99.90
12682;DHT22;6405;59.208;18.216;2023-02-27T00:58:17;-6.90;99.90
12682;DHT22;6405;59.208;18.216;2023-02-27T01:00:43;-6.80;99.90
12682;DHT22;6405;59.208;18.216;2023-02-27T01:03:09;-6.90;99.90
12682;DHT22;6405;59.208;18.216;2023-02-27T01:05:35;-6.80;99.90
12682;DHT22;6405;59.208;18.216;2023-02-27T01:08:00;-6.80;99.90
12682;DHT22;6405;59.208;18.216;2023-02-27T01:10:26;-6.80;99.90
12682;DHT22;6405;59.208;18.216;2023-02-27T01:12:52;-6.70;99.90
12682;DHT22;6405;59.208;18.216;2023-02-27T01:15:17;-6.70;99.90
12682;DHT22;6405;59.208;18.216;2023-02-27T01:17:43;-6.70;99.90
12682;DHT22;6405;59.208;18.216;2023-02-27T01:20:10;-6.60;99.90
12682;DHT22;6405;59.208;18.216;2023-02-27T01:22:36;-6.50;99.90
12682;DHT22;6405;59.208;18.216;2023-02-27T01:25:02;-6.50;99.90
12682;DHT22;6405;59.208;18.216;2023-02-27T01:27:29;-6.40;99.90
12682;DHT22;6405;59.208;18.216;2023-02-27T01:29:55;-6.30;99.90
12682;DHT22;6405;59.208;18.216;2023-02-27T01:32:20;-6.30;99.90
12682;DHT22;6405;59.208;18.216;2023-02-27T01:34:46;-6.30;99.90
12682;DHT22;6405;59.208;18.216;2023-02-27T01:37:12;-6.30;99.90
12682;DHT22;6405;59.208;18.216;2023-02-27T01:39:37;-6.20;99.90
12682;DHT22;6405;59.208;18.216;2023-02-27T01:42:03;-6.20;99.90
12682;DHT22;6405;59.208;18.216;2023-02-27T01:44:33;-6.00;99.90
12682;DHT22;6405;59.208;18.216;2023-02-27T01:47:16;-6.00;99.90
12682;DHT22;6405;59.208;18.216;2023-02-27T01:49:42;-5.80;99.90
12682;DHT22;6405;59.208;18.216;2023-02-27T01:52:10;-5.70;99.90
12682;DHT22;6405;59.208;18.216;2023-02-27T01:54:39;-5.60;99.90
12682;DHT22;6405;59.208;18.216;2023-02-27T01:57:06;-5.50;99.90
12682;DHT22;6405;59.208;18.216;2023-02-27T01:59:39;-5.50;99.90
12682;DHT22;6405;59.208;18.216;2023-02-27T02:02:10;-5.40;99.90
12682;DHT22;6405;59.208;18.216;2023-02-27T02:04:38;-5.30;99.90
12682;DHT22;6405;59.208;18.216;2023-02-27T02:07:08;-5.20;99.90
12682;DHT22;6405;59.208;18.216;2023-02-27T02:09:39;-5.10;99.90
12682;DHT22;6405;59.208;18.216;2023-02-27T02:12:07;-5.00;99.90
12682;DHT22;6405;59.208;18.216;2023-02-27T02:14:33;-4.90;99.90
12682;DHT22;6405;59.208;18.216;2023-02-27T02:28:51;-4.50;99.90
12682;DHT22;6405;59.208;18.216;2023-02-27T02:34:45;-4.40;99.90
12682;DHT22;6405;59.208;18.216;2023-02-27T02:42:44;-4.20;99.90
12682;DHT22;6405;59.208;18.216;2023-02-27T02:45:20;-4.10;99.90
12682;DHT22;6405;59.208;18.216;2023-02-27T02:48:16;-4.00;99.90
12682;DHT22;6405;59.208;18.216;2023-02-27T02:50:56;-4.00;99.90
12682;DHT22;6405;59.208;18.216;2023-02-27T02:56:26;-4.00;99.90
12682;DHT22;6405;59.208;18.216;2023-02-27T02:59:11;-3.90;99.90
12682;DHT22;6405;59.208;18.216;2023-02-27T03:01:43;-3.90;99.90
12682;DHT22;6405;59.208;18.216;2023-02-27T03:04:26;-3.90;99.90
12682;DHT22;6405;59.208;18.216;2023-02-27T03:07:01;-3.80;99.90
12682;DHT22;6405;59.208;18.216;2023-02-27T03:09:47;-3.80;99.90
12682;DHT22;6405;59.208;18.216;2023-02-27T03:12:17;-3.60;99.90
12682;DHT22;6405;59.208;18.216;2023-02-27T03:14:59;-3.70;99.90
12682;DHT22;6405;59.208;18.216;2023-02-27T03:17:38;-3.70;99.90
12682;DHT22;6405;59.208;18.216;2023-02-27T03:20:07;-3.70;99.90
12682;DHT22;6405;59.208;18.216;2023-02-27T03:22:36;-3.70;99.90
12682;DHT22;6405;59.208;18.216;2023-02-27T03:25:06;-3.70;99.90
12682;DHT22;6405;59.208;18.216;2023-02-27T03:27:40;-3.60;99.90
12682;DHT22;6405;59.208;18.216;2023-02-27T03:30:11;-3.60;99.90
12682;DHT22;6405;59.208;18.216;2023-02-27T03:35:12;-3.40;99.90
12682;DHT22;6405;59.208;18.216;2023-02-27T03:38:05;-3.40;99.90
12682;DHT22;6405;59.208;18.216;2023-02-27T03:40:37;-3.30;99.90
12682;DHT22;6405;59.208;18.216;2023-02-27T03:45:48;-3.20;99.90
12682;DHT22;6405;59.208;18.216;2023-02-27T03:48:18;-3.20;99.90
12682;DHT22;6405;59.208;18.216;2023-02-27T03:50:43;-3.10;99.90
12682;DHT22;6405;59.208;18.216;2023-02-27T03:53:15;-3.10;99.90
12682;DHT22;6405;59.208;18.216;2023-02-27T03:55:43;-3.00;99.90
12682;DHT22;6405;59.208;18.216;2023-02-27T03:58:10;-3.00;99.90
12682;DHT22;6405;59.208;18.216;2023-02-27T04:00:36;-3.00;99.90
12682;DHT22;6405;59.208;18.216;2023-02-27T04:03:05;-2.90;99.90
12682;DHT22;6405;59.208;18.216;2023-02-27T04:05:32;-2.90;99.90
12682;DHT22;6405;59.208;18.216;2023-02-27T04:08:26;-2.90;99.90
12682;DHT22;6405;59.208;18.216;2023-02-27T04:11:17;-2.80;99.90
12682;DHT22;6405;59.208;18.216;2023-02-27T04:14:10;-2.80;99.90
12682;DHT22;6405;59.208;18.216;2023-02-27T04:17:11;-2.80;99.90
12682;DHT22;6405;59.208;18.216;2023-02-27T04:28:10;-2.60;99.90
12682;DHT22;6405;59.208;18.216;2023-02-27T04:35:53;-2.50;99.90
12682;DHT22;6405;59.208;18.216;2023-02-27T04:38:39;-2.50;99.90
12682;DHT22;6405;59.208;18.216;2023-02-27T04:41:22;-2.50;99.90
12682;DHT22;6405;59.208;18.216;2023-02-27T04:43:50;-2.50;99.90
12682;DHT22;6405;59.208;18.216;2023-02-27T04:46:19;-2.50;99.90
12682;DHT22;6405;59.208;18.216;2023-02-27T04:48:59;-2.50;99.90
12682;DHT22;6405;59.208;18.216;2023-02-27T04:51:35;-2.40;99.90
12682;DHT22;6405;59.208;18.216;2023-02-27T04:54:08;-2.40;99.90
12682;DHT22;6405;59.208;18.216;2023-02-27T04:56:46;-2.40;99.90
12682;DHT22;6405;59.208;18.216;2023-02-27T04:59:19;-2.40;99.90
12682;DHT22;6405;59.208;18.216;2023-02-27T05:04:31;-2.40;99.90
12682;DHT22;6405;59.208;18.216;2023-02-27T05:07:00;-2.40;99.90
12682;DHT22;6405;59.208;18.216;2023-02-27T05:09:31;-2.30;99.90
12682;DHT22;6405;59.208;18.216;2023-02-27T05:12:46;-2.30;99.90
12682;DHT22;6405;59.208;18.216;2023-02-27T05:15:11;-2.30;99.90
12682;DHT22;6405;59.208;18.216;2023-02-27T05:17:45;-2.20;99.90
12682;DHT22;6405;59.208;18.216;2023-02-27T05:20:13;-2.20;99.90
12682;DHT22;6405;59.208;18.216;2023-02-27T05:22:59;-2.20;99.90
12682;DHT22;6405;59.208;18.216;2023-02-27T05:25:51;-2.10;99.90
12682;DHT22;6405;59.208;18.216;2023-02-27T05:28:23;-2.10;99.90
12682;DHT22;6405;59.208;18.216;2023-02-27T05:31:04;-2.00;99.90
12682;DHT22;6405;59.208;18.216;2023-02-27T05:33:47;-2.00;99.90
12682;DHT22;6405;59.208;18.216;2023-02-27T05:38:55;-1.90;99.90
12682;DHT22;6405;59.208;18.216;2023-02-27T05:41:30;-1.80;99.90
12682;DHT22;6405;59.208;18.216;2023-02-27T05:44:22;-1.70;99.90
12682;DHT22;6405;59.208;18.216;2023-02-27T05:46:55;-1.70;99.90
12682;DHT22;6405;59.208;18.216;2023-02-27T05:49:30;-1.60;99.90
12682;DHT22;6405;59.208;18.216;2023-02-27T05:51:59;-1.50;99.90
12682;DHT22;6405;59.208;18.216;2023-02-27T05:54:43;-1.50;99.90
12682;DHT22;6405;59.208;18.216;2023-02-27T05:57:16;-1.40;99.90
12682;DHT22;6405;59.208;18.216;2023-02-27T05:59:49;-1.40;99.90
12682;DHT22;6405;59.208;18.216;2023-02-27T06:02:16;-1.40;99.90
12682;DHT22;6405;59.208;18.216;2023-02-27T06:04:42;-1.40;99.90
12682;DHT22;6405;59.208;18.216;2023-02-27T06:07:07;-1.40;99.90
12682;DHT22;6405;59.208;18.216;2023-02-27T06:09:33;-1.40;99.90
12682;DHT22;6405;59.208;18.216;2023-02-27T06:12:00;-1.40;99.90
12682;DHT22;6405;59.208;18.216;2023-02-27T06:14:26;-1.30;99.90
12682;DHT22;6405;59.208;18.216;2023-02-27T06:16:53;-1.20;99.90
12682;DHT22;6405;59.208;18.216;2023-02-27T06:19:18;-1.10;99.90
12682;DHT22;6405;59.208;18.216;2023-02-27T06:21:44;-1.00;99.90
12682;DHT22;6405;59.208;18.216;2023-02-27T06:24:10;-1.00;99.90
12682;DHT22;6405;59.208;18.216;2023-02-27T06:26:35;-0.90;99.90
12682;DHT22;6405;59.208;18.216;2023-02-27T06:29:01;-0.80;99.90
12682;DHT22;6405;59.208;18.216;2023-02-27T06:31:27;-0.80;99.90
12682;DHT22;6405;59.208;18.216;2023-02-27T06:33:52;-0.70;99.90
12682;DHT22;6405;59.208;18.216;2023-02-27T06:36:20;-0.60;99.90
12682;DHT22;6405;59.208;18.216;2023-02-27T06:38:47;-0.60;99.90
12682;DHT22;6405;59.208;18.216;2023-02-27T06:41:13;-0.60;99.90
12682;DHT22;6405;59.208;18.216;2023-02-27T06:43:39;-0.60;99.90
12682;DHT22;6405;59.208;18.216;2023-02-27T06:46:05;-0.50;99.90
12682;DHT22;6405;59.208;18.216;2023-02-27T06:48:31;-0.40;99.90
12682;DHT22;6405;59.208;18.216;2023-02-27T06:50:57;-0.40;99.90
12682;DHT22;6405;59.208;18.216;2023-02-27T06:53:23;-0.30;99.90
12682;DHT22;6405;59.208;18.216;2023-02-27T06:55:49;-0.30;99.90
12682;DHT22;6405;59.208;18.216;2023-02-27T06:58:15;-0.20;99.90
12682;DHT22;6405;59.208;18.216;2023-02-27T07:00:41;-0.10;99.90
12682;DHT22;6405;59.208;18.216;2023-02-27T07:03:08;-0.10;99.90
12682;DHT22;6405;59.208;18.216;2023-02-27T07:05:33;0.00;99.90
12682;DHT22;6405;59.208;18.216;2023-02-27T07:07:59;0.10;99.90
12682;DHT22;6405;59.208;18.216;2023-02-27T07:10:25;0.10;99.90
12682;DHT22;6405;59.208;18.216;2023-02-27T07:12:50;0.20;99.90
12682;DHT22;6405;59.208;18.216;2023-02-27T07:15:17;0.30;99.90
12682;DHT22;6405;59.208;18.216;2023-02-27T07:17:42;0.30;99.90
12682;DHT22;6405;59.208;18.216;2023-02-27T07:20:09;0.30;99.90
12682;DHT22;6405;59.208;18.216;2023-02-27T07:22:36;0.40;99.90
12682;DHT22;6405;59.208;18.216;2023-02-27T07:25:03;0.50;99.90
12682;DHT22;6405;59.208;18.216;2023-02-27T07:27:29;0.40;99.90
12682;DHT22;6405;59.208;18.216;2023-02-27T07:29:55;0.70;99.90
12682;DHT22;6405;59.208;18.216;2023-02-27T07:32:20;0.80;99.90
12682;DHT22;6405;59.208;18.216;2023-02-27T07:34:46;0.90;99.90
12682;DHT22;6405;59.208;18.216;2023-02-27T07:37:12;0.90;99.90
12682;DHT22;6405;59.208;18.216;2023-02-27T07:39:38;1.00;99.90
12682;DHT22;6405;59.208;18.216;2023-02-27T07:42:03;1.10;99.90
12682;DHT22;6405;59.208;18.216;2023-02-27T07:44:29;1.20;99.90
12682;DHT22;6405;59.208;18.216;2023-02-27T07:46:55;1.20;99.90
12682;DHT22;6405;59.208;18.216;2023-02-27T07:49:20;1.30;99.90
12682;DHT22;6405;59.208;18.216;2023-02-27T07:51:46;1.40;99.90
12682;DHT22;6405;59.208;18.216;2023-02-27T07:54:12;1.40;99.90
12682;DHT22;6405;59.208;18.216;2023-02-27T07:56:37;1.40;99.90
12682;DHT22;6405;59.208;18.216;2023-02-27T07:59:03;1.50;99.90
12682;DHT22;6405;59.208;18.216;2023-02-27T08:01:28;1.50;99.90
12682;DHT22;6405;59.208;18.216;2023-02-27T08:03:55;1.50;99.90
12682;DHT22;6405;59.208;18.216;2023-02-27T08:06:21;1.60;99.90
12682;DHT22;6405;59.208;18.216;2023-02-27T08:08:48;1.60;99.90
12682;DHT22;6405;59.208;18.216;2023-02-27T08:11:14;1.70;99.90
12682;DHT22;6405;59.208;18.216;2023-02-27T08:13:40;1.70;99.90
12682;DHT22;6405;59.208;18.216;2023-02-27T08:16:06;1.80;99.90
12682;DHT22;6405;59.208;18.216;2023-02-27T08:18:32;1.90;99.90
12682;DHT22;6405;59.208;18.216;2023-02-27T08:20:58;1.90;99.90
12682;DHT22;6405;59.208;18.216;2023-02-27T08:23:24;2.00;99.90
12682;DHT22;6405;59.208;18.216;2023-02-27T08:25:49;2.10;99.90
12682;DHT22;6405;59.208;18.216;2023-02-27T08:28:15;2.20;99.90
12682;DHT22;6405;59.208;18.216;2023-02-27T08:30:43;2.30;99.90
12682;DHT22;6405;59.208;18.216;2023-02-27T08:33:08;2.30;99.90
12682;DHT22;6405;59.208;18.216;2023-02-27T08:35:34;2.30;99.90
12682;DHT22;6405;59.208;18.216;2023-02-27T08:37:59;2.30;99.90
12682;DHT22;6405;59.208;18.216;2023-02-27T08:40:25;2.40;99.90
12682;DHT22;6405;59.208;18.216;2023-02-27T08:42:51;2.50;99.90
12682;DHT22;6405;59.208;18.216;2023-02-27T08:45:16;2.60;99.90
12682;DHT22;6405;59.208;18.216;2023-02-27T08:47:43;2.80;99.90
12682;DHT22;6405;59.208;18.216;2023-02-27T08:50:10;3.00;99.90
12682;DHT22;6405;59.208;18.216;2023-02-27T08:52:37;3.10;99.90
12682;DHT22;6405;59.208;18.216;2023-02-27T08:55:03;3.20;99.90
12682;DHT22;6405;59.208;18.216;2023-02-27T08:57:29;3.40;99.90
12682;DHT22;6405;59.208;18.216;2023-02-27T08:59:54;3.60;99.90
12682;DHT22;6405;59.208;18.216;2023-02-27T09:02:20;3.60;99.90
12682;DHT22;6405;59.208;18.216;2023-02-27T09:04:51;3.60;99.90
12682;DHT22;6405;59.208;18.216;2023-02-27T09:07:16;3.60;99.90
12682;DHT22;6405;59.208;18.216;2023-02-27T09:09:42;3.60;99.90
12682;DHT22;6405;59.208;18.216;2023-02-27T09:12:08;3.60;99.90
12682;DHT22;6405;59.208;18.216;2023-02-27T09:14:33;3.70;99.90
12682;DHT22;6405;59.208;18.216;2023-02-27T09:16:59;3.80;99.90
12682;DHT22;6405;59.208;18.216;2023-02-27T09:19:25;3.80;99.90
12682;DHT22;6405;59.208;18.216;2023-02-27T09:21:50;3.80;99.90
12682;DHT22;6405;59.208;18.216;2023-02-27T09:24:16;3.90;99.90
12682;DHT22;6405;59.208;18.216;2023-02-27T09:26:42;3.80;99.90
12682;DHT22;6405;59.208;18.216;2023-02-27T09:29:07;3.90;99.90
12682;DHT22;6405;59.208;18.216;2023-02-27T09:31:33;3.90;99.90
12682;DHT22;6405;59.208;18.216;2023-02-27T09:33:59;4.00;99.90
12682;DHT22;6405;59.208;18.216;2023-02-27T09:36:26;4.00;99.90
12682;DHT22;6405;59.208;18.216;2023-02-27T09:38:52;4.20;99.90
12682;DHT22;6405;59.208;18.216;2023-02-27T09:44:00;4.50;99.90
12682;DHT22;6405;59.208;18.216;2023-02-27T09:46:27;4.40;99.90
12682;DHT22;6405;59.208;18.216;2023-02-27T09:48:56;4.50;99.90
12682;DHT22;6405;59.208;18.216;2023-02-27T09:51:22;4.60;99.90
12682;DHT22;6405;59.208;18.216;2023-02-27T09:53:59;4.60;99.90
12682;DHT22;6405;59.208;18.216;2023-02-27T09:59:02;4.70;99.90
12682;DHT22;6405;59.208;18.216;2023-02-27T10:01:41;4.80;99.90
12682;DHT22;6405;59.208;18.216;2023-02-27T10:06:42;4.90;99.90
12682;DHT22;6405;59.208;18.216;2023-02-27T10:17:06;5.30;99.90
12682;DHT22;6405;59.208;18.216;2023-02-27T10:19:37;5.30;99.90
12682;DHT22;6405;59.208;18.216;2023-02-27T10:22:07;5.30;99.90
12682;DHT22;6405;59.208;18.216;2023-02-27T10:24:41;5.30;99.90
12682;DHT22;6405;59.208;18.216;2023-02-27T10:27:16;5.40;99.90
12682;DHT22;6405;59.208;18.216;2023-02-27T10:29:43;5.60;99.90
12682;DHT22;6405;59.208;18.216;2023-02-27T10:32:30;5.70;99.90
12682;DHT22;6405;59.208;18.216;2023-02-27T10:34:59;5.80;99.90
12682;DHT22;6405;59.208;18.216;2023-02-27T10:37:29;5.80;99.90
12682;DHT22;6405;59.208;18.216;2023-02-27T10:40:00;5.80;99.90
12682;DHT22;6405;59.208;18.216;2023-02-27T10:42:33;5.70;99.90
12682;DHT22;6405;59.208;18.216;2023-02-27T10:45:01;5.90;99.90
12682;DHT22;6405;59.208;18.216;2023-02-27T10:47:27;5.90;99.90
12682;DHT22;6405;59.208;18.216;2023-02-27T10:49:54;5.90;99.90
12682;DHT22;6405;59.208;18.216;2023-02-27T10:52:20;6.10;99.90
12682;DHT22;6405;59.208;18.216;2023-02-27T10:54:46;6.10;99.90
12682;DHT22;6405;59.208;18.216;2023-02-27T10:57:28;6.10;99.90
12682;DHT22;6405;59.208;18.216;2023-02-27T11:00:04;6.10;99.90
12682;DHT22;6405;59.208;18.216;2023-02-27T11:02:49;6.10;99.90
12682;DHT22;6405;59.208;18.216;2023-02-27T11:07:54;6.00;99.90
12682;DHT22;6405;59.208;18.216;2023-02-27T11:10:24;6.00;99.90
12682;DHT22;6405;59.208;18.216;2023-02-27T11:13:19;6.00;99.90
12682;DHT22;6405;59.208;18.216;2023-02-27T11:16:13;6.10;99.90
12682;DHT22;6405;59.208;18.216;2023-02-27T11:18:44;6.10;99.90
12682;DHT22;6405;59.208;18.216;2023-02-27T11:21:27;6.10;99.90
12682;DHT22;6405;59.208;18.216;2023-02-27T11:24:18;6.10;99.90
12682;DHT22;6405;59.208;18.216;2023-02-27T11:27:01;5.90;99.90
12682;DHT22;6405;59.208;18.216;2023-02-27T11:29:32;5.80;99.90
12682;DHT22;6405;59.208;18.216;2023-02-27T11:32:12;5.90;99.90
12682;DHT22;6405;59.208;18.216;2023-02-27T11:34:45;5.80;99.90
12682;DHT22;6405;59.208;18.216;2023-02-27T11:37:28;5.80;99.90
12682;DHT22;6405;59.208;18.216;2023-02-27T11:45:38;5.90;99.90
12682;DHT22;6405;59.208;18.216;2023-02-27T11:51:31;6.10;99.90
12682;DHT22;6405;59.208;18.216;2023-02-27T11:56:54;6.30;99.90
12682;DHT22;6405;59.208;18.216;2023-02-27T12:07:29;6.40;99.90
12682;DHT22;6405;59.208;18.216;2023-02-27T12:10:17;6.50;99.90
12682;DHT22;6405;59.208;18.216;2023-02-27T12:12:51;6.50;99.90
12682;DHT22;6405;59.208;18.216;2023-02-27T12:15:46;6.50;99.90
12682;DHT22;6405;59.208;18.216;2023-02-27T12:18:15;6.50;99.90
12682;DHT22;6405;59.208;18.216;2023-02-27T12:20:59;6.50;99.90
12682;DHT22;6405;59.208;18.216;2023-02-27T12:23:37;6.60;99.90
12682;DHT22;6405;59.208;18.216;2023-02-27T12:26:22;6.60;99.90
12682;DHT22;6405;59.208;18.216;2023-02-27T12:32:02;6.60;99.90
12682;DHT22;6405;59.208;18.216;2023-02-27T12:34:43;6.60;99.90
12682;DHT22;6405;59.208;18.216;2023-02-27T12:37:13;6.60;99.90
12682;DHT22;6405;59.208;18.216;2023-02-27T12:39:43;6.60;99.90
12682;DHT22;6405;59.208;18.216;2023-02-27T12:45:41;6.70;99.90
12682;DHT22;6405;59.208;18.216;2023-02-27T12:48:48;6.70;99.90
12682;DHT22;6405;59.208;18.216;2023-02-27T12:51:04;6.70;99.90
12682;DHT22;6405;59.208;18.216;2023-02-27T12:56:14;6.80;99.90
12682;DHT22;6405;59.208;18.216;2023-02-27T12:59:06;6.80;99.90
12682;DHT22;6405;59.208;18.216;2023-02-27T13:01:45;6.90;99.90
12682;DHT22;6405;59.208;18.216;2023-02-27T13:04:43;6.80;99.90
12682;DHT22;6405;59.208;18.216;2023-02-27T13:07:28;6.80;99.90
12682;DHT22;6405;59.208;18.216;2023-02-27T13:10:01;6.80;99.90
12682;DHT22;6405;59.208;18.216;2023-02-27T13:17:44;6.90;99.90
12682;DHT22;6405;59.208;18.216;2023-02-27T13:20:39;6.80;99.90
12682;DHT22;6405;59.208;18.216;2023-02-27T13:23:47;6.80;99.90
12682;DHT22;6405;59.208;18.216;2023-02-27T13:26:26;6.90;99.90
12682;DHT22;6405;59.208;18.216;2023-02-27T13:28:53;6.90;99.90
12682;DHT22;6405;59.208;18.216;2023-02-27T13:31:51;6.80;99.90
12682;DHT22;6405;59.208;18.216;2023-02-27T13:34:35;6.80;99.90
12682;DHT22;6405;59.208;18.216;2023-02-27T13:37:05;6.80;99.90
12682;DHT22;6405;59.208;18.216;2023-02-27T13:47:46;6.90;99.90
12682;DHT22;6405;59.208;18.216;2023-02-27T13:52:41;6.90;99.90
12682;DHT22;6405;59.208;18.216;2023-02-27T13:57:51;6.80;99.90
12682;DHT22;6405;59.208;18.216;2023-02-27T14:00:24;6.80;99.90
12682;DHT22;6405;59.208;18.216;2023-02-27T14:03:22;6.80;99.90
12682;DHT22;6405;59.208;18.216;2023-02-27T14:05:51;6.80;99.90
12682;DHT22;6405;59.208;18.216;2023-02-27T14:08:29;6.70;99.90
12682;DHT22;6405;59.208;18.216;2023-02-27T14:11:16;6.70;99.90
12682;DHT22;6405;59.208;18.216;2023-02-27T14:21:59;6.60;99.90
12682;DHT22;6405;59.208;18.216;2023-02-27T14:24:38;6.60;99.90
12682;DHT22;6405;59.208;18.216;2023-02-27T14:27:15;6.50;99.90
12682;DHT22;6405;59.208;18.216;2023-02-27T14:29:45;6.50;99.90
12682;DHT22;6405;59.208;18.216;2023-02-27T14:32:20;6.50;99.90
12682;DHT22;6405;59.208;18.216;2023-02-27T14:34:47;6.40;99.90
12682;DHT22;6405;59.208;18.216;2023-02-27T14:37:19;6.40;99.90
12682;DHT22;6405;59.208;18.216;2023-02-27T14:39:49;6.40;99.90
12682;DHT22;6405;59.208;18.216;2023-02-27T14:45:03;6.30;99.90
12682;DHT22;6405;59.208;18.216;2023-02-27T14:47:34;6.30;99.90
12682;DHT22;6405;59.208;18.216;2023-02-27T14:50:01;6.30;99.90
12682;DHT22;6405;59.208;18.216;2023-02-27T14:52:31;6.30;99.90
12682;DHT22;6405;59.208;18.216;2023-02-27T14:55:27;6.20;99.90
12682;DHT22;6405;59.208;18.216;2023-02-27T15:00:48;6.00;99.90
12682;DHT22;6405;59.208;18.216;2023-02-27T15:03:44;6.00;99.90
12682;DHT22;6405;59.208;18.216;2023-02-27T15:06:15;5.90;99.90
12682;DHT22;6405;59.208;18.216;2023-02-27T15:08:53;5.80;99.90
12682;DHT22;6405;59.208;18.216;2023-02-27T15:11:22;5.70;99.90
12682;DHT22;6405;59.208;18.216;2023-02-27T15:14:01;5.60;99.90
12682;DHT22;6405;59.208;18.216;2023-02-27T15:18:56;5.50;99.90
12682;DHT22;6405;59.208;18.216;2023-02-27T15:21:24;5.50;99.90
12682;DHT22;6405;59.208;18.216;2023-02-27T15:24:02;5.50;99.90
12682;DHT22;6405;59.208;18.216;2023-02-27T15:26:33;5.40;99.90
12682;DHT22;6405;59.208;18.216;2023-02-27T15:28:59;5.30;99.90
12682;DHT22;6405;59.208;18.216;2023-02-27T15:31:26;5.30;99.90
12682;DHT22;6405;59.208;18.216;2023-02-27T15:33:56;5.20;99.90
12682;DHT22;6405;59.208;18.216;2023-02-27T15:36:31;5.10;99.90
12682;DHT22;6405;59.208;18.216;2023-02-27T15:39:16;5.00;99.90
12682;DHT22;6405;59.208;18.216;2023-02-27T15:41:45;4.90;99.90
12682;DHT22;6405;59.208;18.216;2023-02-27T15:44:14;4.80;99.90
12682;DHT22;6405;59.208;18.216;2023-02-27T15:46:40;4.80;99.90
12682;DHT22;6405;59.208;18.216;2023-02-27T15:49:08;4.70;99.90
12682;DHT22;6405;59.208;18.216;2023-02-27T15:51:34;4.60;99.90
12682;DHT22;6405;59.208;18.216;2023-02-27T15:54:02;4.40;99.90
12682;DHT22;6405;59.208;18.216;2023-02-27T15:56:32;4.30;99.90
12682;DHT22;6405;59.208;18.216;2023-02-27T15:58:59;4.20;99.90
12682;DHT22;6405;59.208;18.216;2023-02-27T16:01:27;4.00;99.90
12682;DHT22;6405;59.208;18.216;2023-02-27T16:04:13;3.80;99.90
12682;DHT22;6405;59.208;18.216;2023-02-27T16:06:40;3.60;99.90
12682;DHT22;6405;59.208;18.216;2023-02-27T16:09:46;3.50;99.90
12682;DHT22;6405;59.208;18.216;2023-02-27T16:12:36;3.50;99.90
12682;DHT22;6405;59.208;18.216;2023-02-27T16:15:22;3.30;99.90
12682;DHT22;6405;59.208;18.216;2023-02-27T16:20:47;2.90;99.90
12682;DHT22;6405;59.208;18.216;2023-02-27T16:23:23;2.70;99.90
12682;DHT22;6405;59.208;18.216;2023-02-27T16:26:03;2.50;99.90
12682;DHT22;6405;59.208;18.216;2023-02-27T16:28:37;2.40;99.90
12682;DHT22;6405;59.208;18.216;2023-02-27T16:31:37;2.30;99.90
12682;DHT22;6405;59.208;18.216;2023-02-27T16:34:14;2.10;99.90
12682;DHT22;6405;59.208;18.216;2023-02-27T16:36:42;2.00;99.90
12682;DHT22;6405;59.208;18.216;2023-02-27T16:39:15;1.90;99.90
12682;DHT22;6405;59.208;18.216;2023-02-27T16:41:41;1.90;99.90
12682;DHT22;6405;59.208;18.216;2023-02-27T16:44:07;1.70;99.90
12682;DHT22;6405;59.208;18.216;2023-02-27T16:46:34;1.70;99.90
12682;DHT22;6405;59.208;18.216;2023-02-27T16:48:59;1.60;99.90
12682;DHT22;6405;59.208;18.216;2023-02-27T16:51:28;1.40;99.90
12682;DHT22;6405;59.208;18.216;2023-02-27T16:53:55;1.30;99.90
12682;DHT22;6405;59.208;18.216;2023-02-27T16:56:23;1.20;99.90
12682;DHT22;6405;59.208;18.216;2023-02-27T16:58:49;1.10;99.90
12682;DHT22;6405;59.208;18.216;2023-02-27T17:01:15;1.10;99.90
12682;DHT22;6405;59.208;18.216;2023-02-27T17:03:42;0.90;99.90
12682;DHT22;6405;59.208;18.216;2023-02-27T17:06:09;0.90;99.90
12682;DHT22;6405;59.208;18.216;2023-02-27T17:08:41;0.80;99.90
12682;DHT22;6405;59.208;18.216;2023-02-27T17:11:08;0.70;99.90
12682;DHT22;6405;59.208;18.216;2023-02-27T17:13:34;0.70;99.90
12682;DHT22;6405;59.208;18.216;2023-02-27T17:16:03;0.70;99.90
12682;DHT22;6405;59.208;18.216;2023-02-27T17:18:30;0.60;99.90
12682;DHT22;6405;59.208;18.216;2023-02-27T17:20:59;0.50;99.90
12682;DHT22;6405;59.208;18.216;2023-02-27T17:23:25;0.40;99.90
12682;DHT22;6405;59.208;18.216;2023-02-27T17:25:52;0.30;99.90
12682;DHT22;6405;59.208;18.216;2023-02-27T17:28:18;0.30;99.90
12682;DHT22;6405;59.208;18.216;2023-02-27T17:30:44;0.20;99.90
12682;DHT22;6405;59.208;18.216;2023-02-27T17:33:10;0.20;99.90
12682;DHT22;6405;59.208;18.216;2023-02-27T17:35:35;0.10;99.90
12682;DHT22;6405;59.208;18.216;2023-02-27T17:38:01;0.10;99.90
12682;DHT22;6405;59.208;18.216;2023-02-27T17:40:27;0.00;99.90
12682;DHT22;6405;59.208;18.216;2023-02-27T17:42:53;0.00;99.90
12682;DHT22;6405;59.208;18.216;2023-02-27T17:45:19;-0.10;99.90
12682;DHT22;6405;59.208;18.216;2023-02-27T17:47:46;-0.10;99.90
12682;DHT22;6405;59.208;18.216;2023-02-27T17:50:13;-0.10;99.90
12682;DHT22;6405;59.208;18.216;2023-02-27T17:52:38;-0.20;99.90
12682;DHT22;6405;59.208;18.216;2023-02-27T17:55:05;-0.20;99.90
12682;DHT22;6405;59.208;18.216;2023-02-27T17:57:37;-0.30;99.90
12682;DHT22;6405;59.208;18.216;2023-02-27T18:00:05;-0.30;99.90
12682;DHT22;6405;59.208;18.216;2023-02-27T18:02:31;-0.30;99.90
12682;DHT22;6405;59.208;18.216;2023-02-27T18:04:57;-0.30;99.90
12682;DHT22;6405;59.208;18.216;2023-02-27T18:07:23;-0.40;99.90
12682;DHT22;6405;59.208;18.216;2023-02-27T18:09:48;-0.40;99.90
12682;DHT22;6405;59.208;18.216;2023-02-27T18:12:14;-0.40;99.90
12682;DHT22;6405;59.208;18.216;2023-02-27T18:14:40;-0.40;99.90
12682;DHT22;6405;59.208;18.216;2023-02-27T18:17:06;-0.50;99.90
12682;DHT22;6405;59.208;18.216;2023-02-27T18:19:38;-0.50;99.90